createdAt,value
2023-01-07T00:00:34.288Z,12.1
2023-01-07T00:05:34.277Z,12.2
2023-01-07T00:10:34.344Z,12.2
2023-01-07T00:15:34.330Z,12.1
2023-01-07T00:20:34.376Z,12.1
2023-01-07T00:25:36.447Z,12.1
2023-01-07T00:30:34.464Z,12.1
2023-01-07T00:35:34.481Z,12.1
2023-01-07T00:40:36.465Z,12.1
2023-01-07T00:45:34.527Z,12.1
2023-01-07T00:50:34.626Z,12.1
2023-01-07T00:55:34.628Z,12.1
2023-01-07T01:00:36.772Z,12.1
2023-01-07T01:05:34.745Z,12.1
2023-01-07T01:10:34.827Z,12.1
2023-01-07T01:15:36.836Z,12.1
2023-01-07T01:20:34.855Z,12.1
2023-01-07T01:25:34.931Z,12.2
2023-01-07T01:30:34.912Z,12.2
2023-01-07T01:35:34.984Z,12.2
2023-01-07T01:40:35.065Z,12.2
2023-01-07T01:45:35.062Z,12.2
2023-01-07T01:50:35.134Z,12.1
2023-01-07T01:55:35.161Z,12.2
2023-01-07T02:00:35.306Z,12.1
2023-01-07T02:05:35.278Z,12.1
2023-01-07T02:10:35.317Z,12.1
2023-01-07T02:15:35.427Z,12.1
2023-01-07T02:20:35.518Z,12.1
2023-01-07T02:25:35.561Z,12.1
2023-01-07T02:30:35.561Z,12.1
2023-01-07T02:35:35.649Z,12.0
2023-01-07T02:40:35.680Z,12.0
2023-01-07T02:45:35.811Z,11.9
2023-01-07T02:55:35.784Z,11.9
2023-01-07T03:00:35.811Z,11.9
2023-01-07T03:05:35.718Z,11.9
2023-01-07T03:10:35.735Z,11.9
2023-01-07T03:15:35.776Z,11.9
2023-01-07T03:20:35.827Z,11.9
2023-01-07T03:25:35.925Z,11.9
2023-01-07T03:30:35.918Z,11.9
2023-01-07T03:35:35.946Z,11.8
2023-01-07T03:40:35.896Z,11.8
2023-01-07T03:45:35.962Z,11.8
2023-01-07T03:50:35.918Z,11.8
2023-01-07T03:55:35.994Z,11.8
2023-01-07T04:00:35.987Z,11.8
2023-01-07T04:05:36.023Z,11.8
2023-01-07T04:10:36.010Z,11.8
2023-01-07T04:15:36.082Z,11.7
2023-01-07T04:20:36.081Z,11.7
2023-01-07T04:25:36.132Z,11.6
2023-01-07T04:30:36.210Z,11.6
2023-01-07T04:35:36.207Z,11.6
2023-01-07T04:40:38.269Z,11.6
2023-01-07T04:45:36.279Z,11.6
2023-01-07T04:50:36.301Z,11.5
2023-01-07T04:55:36.396Z,11.4
2023-01-07T05:00:36.352Z,11.2
2023-01-07T05:05:36.319Z,11.2
2023-01-07T05:10:36.345Z,11.1
2023-01-07T05:15:36.374Z,11.1
2023-01-07T05:20:36.345Z,11.1
2023-01-07T05:25:38.379Z,11.1
2023-01-07T05:30:36.484Z,11.1
2023-01-07T05:40:36.388Z,10.9
2023-01-07T05:45:38.421Z,10.9
2023-01-07T05:50:36.390Z,10.8
2023-01-07T05:55:36.343Z,10.9
2023-01-07T06:00:36.359Z,10.8
2023-01-07T06:05:36.401Z,10.8
2023-01-07T06:10:36.434Z,10.9
2023-01-07T06:15:36.468Z,10.8
2023-01-07T06:25:38.767Z,10.8
2023-01-07T06:30:36.228Z,10.8
2023-01-07T06:35:36.274Z,10.7
2023-01-07T06:40:36.185Z,10.8
2023-01-07T06:45:36.135Z,10.7
2023-01-07T06:50:36.122Z,10.6
2023-01-07T06:55:38.623Z,10.7
2023-01-07T07:00:36.070Z,10.6
2023-01-07T07:05:36.077Z,10.7
2023-01-07T07:10:36.202Z,10.8
2023-01-07T07:15:36.039Z,10.7
2023-01-07T07:20:35.978Z,10.8
2023-01-07T07:25:36.011Z,10.8
2023-01-07T07:30:47.110Z,10.8
2023-01-07T07:35:35.966Z,10.8
2023-01-07T07:45:35.921Z,10.8
2023-01-07T07:50:35.844Z,10.8
2023-01-07T07:55:35.813Z,10.8
2023-01-07T08:00:35.945Z,10.8
2023-01-07T08:05:35.936Z,10.8
2023-01-07T08:10:35.739Z,10.8
2023-01-07T08:15:35.757Z,10.8
2023-01-07T08:20:35.720Z,10.8
2023-01-07T08:25:35.678Z,10.8
2023-01-07T08:30:35.686Z,10.9
2023-01-07T08:35:35.685Z,11.0
2023-01-07T08:40:35.662Z,11.1
2023-01-07T08:45:35.693Z,11.1
2023-01-07T08:50:35.648Z,11.1
2023-01-07T08:55:35.733Z,11.1
2023-01-07T09:00:35.655Z,11.1
2023-01-07T09:05:35.607Z,11.1
2023-01-07T09:10:35.632Z,11.1
2023-01-07T09:15:35.640Z,11.2
2023-01-07T09:20:35.623Z,11.2
2023-01-07T09:25:35.679Z,11.2
2023-01-07T09:30:35.648Z,11.3
2023-01-07T09:35:35.751Z,11.2
2023-01-07T09:40:35.780Z,11.3
2023-01-07T09:45:35.731Z,11.3
2023-01-07T09:50:35.774Z,11.2
2023-01-07T09:55:35.565Z,11.2
2023-01-07T10:00:37.568Z,11.2
2023-01-07T10:05:35.672Z,11.2
2023-01-07T10:10:35.815Z,11.2
2023-01-07T10:15:35.603Z,11.3
2023-01-07T10:20:35.651Z,11.4
2023-01-07T10:25:35.660Z,11.4
2023-01-07T10:30:35.721Z,11.5
2023-01-07T10:35:35.714Z,11.4
2023-01-07T10:40:35.779Z,11.5
2023-01-07T10:45:35.803Z,11.5
2023-01-07T10:50:38.314Z,11.6
2023-01-07T10:55:35.821Z,11.6
2023-01-07T11:00:35.829Z,11.6
2023-01-07T11:05:35.835Z,11.8
2023-01-07T11:10:35.894Z,11.9
2023-01-07T11:15:35.814Z,11.9
2023-01-07T11:20:35.850Z,11.9
2023-01-07T11:25:35.890Z,12.1
2023-01-07T11:35:35.911Z,11.9
2023-01-07T11:40:39.977Z,11.8
2023-01-07T11:45:36.030Z,11.9
2023-01-07T11:50:36.087Z,12.0
2023-01-07T11:55:36.097Z,12.0
2023-01-07T12:00:36.178Z,11.9
2023-01-07T12:05:36.230Z,11.9
2023-01-07T12:10:36.206Z,11.8
2023-01-07T12:15:36.241Z,11.6
2023-01-07T12:20:36.349Z,11.6
2023-01-07T12:25:38.304Z,11.6
2023-01-07T12:30:38.360Z,11.5
2023-01-07T12:35:36.347Z,11.5
2023-01-07T12:40:36.409Z,11.4
2023-01-07T12:45:36.446Z,11.1
2023-01-07T12:50:38.013Z,11.0
2023-01-07T12:55:36.514Z,10.9
2023-01-07T13:00:36.610Z,11.1
2023-01-07T13:05:36.495Z,11.1
2023-01-07T13:10:36.534Z,11.2
2023-01-07T13:15:36.493Z,11.4
2023-01-07T13:20:36.569Z,11.6
2023-01-07T13:25:36.484Z,11.6
2023-01-07T13:30:36.495Z,11.6
2023-01-07T13:35:36.497Z,11.6
2023-01-07T13:40:36.532Z,11.6
2023-01-07T13:45:36.555Z,11.6
2023-01-07T13:50:36.601Z,11.4
2023-01-07T13:55:36.589Z,11.4
2023-01-07T14:00:36.587Z,11.4
2023-01-07T14:05:36.585Z,11.2
2023-01-07T14:10:36.686Z,11.2
2023-01-07T14:15:36.851Z,11.2
2023-01-07T14:20:36.649Z,11.2
2023-01-07T14:25:36.567Z,11.3
2023-01-07T14:30:36.688Z,11.4
2023-01-07T14:35:38.554Z,11.2
2023-01-07T14:40:36.532Z,11.2
2023-01-07T14:45:36.564Z,11.3
2023-01-07T14:50:36.560Z,11.4
2023-01-07T14:55:40.554Z,11.3
2023-01-07T15:05:36.496Z,11.0
2023-01-07T15:10:36.499Z,10.9
2023-01-07T15:20:36.471Z,10.8
2023-01-07T15:25:36.459Z,10.7
2023-01-07T15:30:38.985Z,10.6
2023-01-07T15:35:36.408Z,10.5
2023-01-07T15:40:36.384Z,10.4
2023-01-07T15:45:36.384Z,10.4
2023-01-07T15:50:36.302Z,10.4
2023-01-07T15:55:36.367Z,10.4
2023-01-07T16:00:36.228Z,10.4
2023-01-07T16:05:36.158Z,10.4
2023-01-07T16:10:36.131Z,10.3
2023-01-07T16:15:36.106Z,10.3
2023-01-07T16:20:36.046Z,10.2
2023-01-07T16:25:36.028Z,10.2
2023-01-07T16:30:36.083Z,9.9
2023-01-07T16:35:35.962Z,9.6
2023-01-07T16:45:35.867Z,8.8
2023-01-07T16:50:35.792Z,8.6
2023-01-07T16:55:38.226Z,8.4
2023-01-07T17:00:37.723Z,8.3
2023-01-07T17:05:35.497Z,8.2
2023-01-07T17:10:35.838Z,8.2
2023-01-07T17:15:35.273Z,8.2
2023-01-07T17:20:35.186Z,8.2
2023-01-07T17:25:35.067Z,8.2
2023-01-07T17:30:34.963Z,8.1
2023-01-07T17:35:34.794Z,8.0
2023-01-07T17:40:34.683Z,8.1
2023-01-07T17:45:34.500Z,7.9
2023-01-07T17:50:34.357Z,7.9
2023-01-07T17:55:34.659Z,7.9
2023-01-07T18:00:34.138Z,7.9
2023-01-07T18:05:33.909Z,7.9
2023-01-07T18:10:34.401Z,7.9
2023-01-07T18:15:33.987Z,7.9
2023-01-07T18:20:33.480Z,7.8
2023-01-07T18:25:33.336Z,7.8
2023-01-07T18:35:33.048Z,7.7
2023-01-07T18:40:32.919Z,7.6
2023-01-07T18:45:32.754Z,7.6
2023-01-07T18:50:32.563Z,7.6
2023-01-07T18:55:32.395Z,7.5
2023-01-07T19:00:32.369Z,7.5
2023-01-07T19:05:32.447Z,7.4
2023-01-07T19:10:31.977Z,7.4
2023-01-07T19:15:35.815Z,7.4
2023-01-07T19:20:31.649Z,7.4
2023-01-07T19:25:31.488Z,7.4
2023-01-07T19:30:31.372Z,7.4
2023-01-07T19:35:31.219Z,7.4
2023-01-07T19:40:33.532Z,7.4
2023-01-07T19:45:30.958Z,7.5
2023-01-07T19:50:34.735Z,7.6
2023-01-07T20:00:30.433Z,7.6
2023-01-07T20:05:30.252Z,7.8
2023-01-07T20:10:30.538Z,7.8
2023-01-07T20:15:29.992Z,7.8
2023-01-07T20:20:29.828Z,7.9
2023-01-07T20:25:29.709Z,7.9
2023-01-07T20:30:29.553Z,8.0
2023-01-07T20:35:29.387Z,8.0
2023-01-07T20:45:29.092Z,8.1
2023-01-07T20:50:28.909Z,8.2
2023-01-07T20:55:28.745Z,8.2
2023-01-07T21:00:28.734Z,8.3
2023-01-07T21:05:28.527Z,8.4
2023-01-07T21:10:28.313Z,8.4
2023-01-07T21:15:28.145Z,8.4
2023-01-07T21:20:28.154Z,8.4
2023-01-07T21:25:28.276Z,8.4
2023-01-07T21:30:27.713Z,8.5
2023-01-07T21:35:27.465Z,8.6
2023-01-07T21:40:27.470Z,8.6
2023-01-07T21:45:27.110Z,8.6
2023-01-07T21:50:27.194Z,8.5
2023-01-07T21:55:27.024Z,8.4
2023-01-07T22:00:26.897Z,8.5
2023-01-07T22:05:28.839Z,8.5
2023-01-07T22:10:26.661Z,8.5
2023-01-07T22:15:26.519Z,8.4
2023-01-07T22:20:26.424Z,8.6
2023-01-07T22:25:26.283Z,8.6
2023-01-07T22:30:26.282Z,8.7
2023-01-07T22:35:26.037Z,8.7
2023-01-07T22:40:26.465Z,8.7
2023-01-07T22:45:25.864Z,8.8
2023-01-07T22:50:25.693Z,8.8
2023-01-07T23:00:25.468Z,8.8
2023-01-07T23:05:27.417Z,8.9
2023-01-07T23:10:25.272Z,9.0
2023-01-07T23:15:25.154Z,9.0
2023-01-07T23:20:27.027Z,9.1
2023-01-07T23:25:24.906Z,9.2
2023-01-07T23:30:24.790Z,9.1
2023-01-07T23:35:24.672Z,9.2
2023-01-07T23:40:24.555Z,9.2
2023-01-07T23:45:26.593Z,9.4
2023-01-07T23:50:24.499Z,9.5
2023-01-07T23:55:24.208Z,9.5
